Time;durP1;ratioP1;P1;durP2;ratioP2;P2;SDS_P1;SDS_P2;PMS_P1;PMS_P2;Temp;Humidity;BMP_temperature;BMP_pressure;BME280_temperature;BME280_humidity;BME280_pressure;Samples;Min_cycle;Max_cycle;Signal;HPM_P1;HPM_P2
2022/11/16 00:01:06;;;;;;;14.93;9.07;;;;;;;;;;6267251;22;20091;-80
2022/11/16 00:03:32;;;;;;;16.33;9.43;;;;;;;;;;6242429;23;20024;-80
2022/11/16 00:05:57;;;;;;;18.08;9.90;;;;;;;;;;6267630;22;20012;-80
2022/11/16 00:08:23;;;;;;;19.73;10.65;;;;;;;;;;6267833;22;20012;-79
2022/11/16 00:10:48;;;;;;;17.65;11.60;;;;;;;;;;6267882;22;20094;-79
2022/11/16 00:13:14;;;;;;;17.33;9.43;;;;;;;;;;6267754;22;20641;-79
2022/11/16 00:15:39;;;;;;;18.98;10.30;;;;;;;;;;6267233;22;20063;-79
2022/11/16 00:18:05;;;;;;;15.65;9.68;;;;;;;;;;6243846;23;20023;-79
2022/11/16 00:20:30;;;;;;;14.70;10.57;;;;;;;;;;6243545;22;20376;-79
2022/11/16 00:22:56;;;;;;;18.63;9.88;;;;;;;;;;6267568;22;20004;-79
2022/11/16 00:25:21;;;;;;;14.50;9.80;;;;;;;;;;6267055;22;20016;-79
2022/11/16 00:27:47;;;;;;;17.27;10.80;;;;;;;;;;6267137;22;19996;-78
2022/11/16 00:30:12;;;;;;;25.98;12.88;;;;;;;;;;6241706;23;20008;-78
2022/11/16 00:32:38;;;;;;;17.65;10.82;;;;;;;;;;6267396;22;20090;-81
2022/11/16 00:35:04;;;;;;;20.45;10.43;;;;;;;;;;6242020;23;20018;-78
2022/11/16 00:37:29;;;;;;;17.52;10.35;;;;;;;;;;6267708;22;20000;-79
2022/11/16 00:39:55;;;;;;;18.00;10.75;;;;;;;;;;6243536;23;20095;-79
2022/11/16 00:42:20;;;;;;;19.10;10.45;;;;;;;;;;6243770;23;20486;-79
2022/11/16 00:44:45;;;;;;;21.92;11.35;;;;;;;;;;6243221;23;20368;-79
2022/11/16 00:47:11;;;;;;;19.23;10.40;;;;;;;;;;6267813;22;20050;-79
2022/11/16 00:49:37;;;;;;;16.92;10.02;;;;;;;;;;6241900;23;20023;-79
2022/11/16 00:52:02;;;;;;;16.95;10.05;;;;;;;;;;6241716;23;20078;-79
2022/11/16 00:54:28;;;;;;;16.10;10.38;;;;;;;;;;6241448;23;20460;-79
2022/11/16 00:56:54;;;;;;;20.15;11.13;;;;;;;;;;6216419;23;20004;-80
2022/11/16 00:59:20;;;;;;;22.48;10.93;;;;;;;;;;6241438;22;20741;-80
2022/11/16 01:01:45;;;;;;;16.40;10.02;;;;;;;;;;6241390;23;20103;-79
2022/11/16 01:04:11;;;;;;;18.92;9.23;;;;;;;;;;6241606;23;20012;-79
2022/11/16 01:06:36;;;;;;;14.93;9.40;;;;;;;;;;6241875;23;20451;-80
2022/11/16 01:09:02;;;;;;;16.30;9.68;;;;;;;;;;6267170;22;20058;-79
2022/11/16 01:14:11;;;;;;;14.48;8.25;;;;;;;;;;6241406;23;20008;-79
2022/11/16 01:16:37;;;;;;;16.17;8.77;;;;;;;;;;6241503;23;19996;-79
2022/11/16 01:19:02;;;;;;;16.65;9.52;;;;;;;;;;6241549;23;20008;-79
2022/11/16 01:21:28;;;;;;;16.25;9.50;;;;;;;;;;6241763;23;20003;-79
2022/11/16 01:23:54;;;;;;;13.77;8.05;;;;;;;;;;6267794;22;20008;-79
2022/11/16 01:26:20;;;;;;;12.98;8.07;;;;;;;;;;6242545;23;20004;-79
2022/11/16 01:28:45;;;;;;;11.85;9.25;;;;;;;;;;6244869;22;20019;-79
2022/11/16 01:31:11;;;;;;;;;;;;;;;;;;6244040;23;20004;-79
2022/11/16 01:33:38;;;;;;;14.80;8.77;;;;;;;;;;6245189;22;20362;-79
2022/11/16 01:36:13;;;;;;;13.13;8.23;;;;;;;;;;6268858;22;20015;-80
2022/11/16 01:38:42;;;;;;;13.43;8.45;;;;;;;;;;6243358;23;20024;-80
2022/11/16 01:41:10;;;;;;;13.88;8.52;;;;;;;;;;6268767;22;20004;-79
2022/11/16 01:43:53;;;;;;;18.15;9.75;;;;;;;;;;6243583;23;20022;-79
2022/11/16 01:46:20;;;;;;;13.73;8.30;;;;;;;;;;6243080;23;20012;-79
2022/11/16 01:48:46;;;;;;;13.93;8.75;;;;;;;;;;6269252;22;20003;-80
2022/11/16 01:51:12;;;;;;;;;;;;;;;;;;6244143;23;20012;-79
2022/11/16 01:53:37;;;;;;;14.00;8.65;;;;;;;;;;6243455;23;19903;-79
2022/11/16 01:56:03;;;;;;;15.15;8.18;;;;;;;;;;6243101;23;20448;-79
2022/11/16 01:58:41;;;;;;;14.38;8.02;;;;;;;;;;6266872;22;20380;-80
2022/11/16 02:01:20;;;;;;;14.77;9.20;;;;;;;;;;6242891;23;20016;-80
2022/11/16 02:03:51;;;;;;;14.27;8.80;;;;;;;;;;6243194;23;20019;-79
2022/11/16 02:06:26;;;;;;;13.65;9.15;;;;;;;;;;6243091;23;20020;-79
2022/11/16 02:12:27;;;;;;;14.38;8.20;;;;;;;;;;6244699;23;20008;-79
2022/11/16 02:15:08;;;;;;;18.30;9.07;;;;;;;;;;6196894;23;20059;-79
2022/11/16 02:17:53;;;;;;;14.10;7.90;;;;;;;;;;6242954;22;20019;-79
2022/11/16 02:20:26;;;;;;;12.95;7.95;;;;;;;;;;6219352;23;20097;-81
2022/11/16 02:22:59;;;;;;;15.23;8.05;;;;;;;;;;6268512;22;20091;-80
2022/11/16 02:25:33;;;;;;;13.35;7.20;;;;;;;;;;6243274;23;20467;-78
2022/11/16 02:28:19;;;;;;;15.45;8.10;;;;;;;;;;6243089;22;20791;-80
2022/11/16 02:30:45;;;;;;;13.55;7.82;;;;;;;;;;6242666;23;20058;-81
2022/11/16 02:33:12;;;;;;;12.93;7.88;;;;;;;;;;6242817;23;20411;-78
2022/11/16 02:35:41;;;;;;;11.40;7.85;;;;;;;;;;6268358;22;20022;-79
2022/11/16 02:38:12;;;;;;;11.43;7.32;;;;;;;;;;6242678;23;20083;-78
2022/11/16 02:40:38;;;;;;;12.38;7.43;;;;;;;;;;6268081;22;20016;-80
2022/11/16 02:43:03;;;;;;;;;;;;;;;;;;6242933;23;20000;-78
2022/11/16 02:45:31;;;;;;;13.55;7.53;;;;;;;;;;6242366;23;19912;-78
2022/11/16 02:47:59;;;;;;;14.25;8.10;;;;;;;;;;6268460;22;20007;-81
2022/11/16 02:50:24;;;;;;;13.88;7.63;;;;;;;;;;6268191;22;20012;-78
2022/11/16 02:52:52;;;;;;;13.20;7.65;;;;;;;;;;6242241;22;20008;-79
2022/11/16 02:55:17;;;;;;;12.68;7.88;;;;;;;;;;6242932;23;20452;-78
2022/11/16 02:57:43;;;;;;;14.43;8.45;;;;;;;;;;6242718;23;20062;-78
2022/11/16 03:00:14;;;;;;;12.25;7.60;;;;;;;;;;6242432;23;20082;-78
2022/11/16 03:02:46;;;;;;;12.10;7.30;;;;;;;;;;6268153;22;20073;-78
2022/11/16 03:05:17;;;;;;;12.20;7.50;;;;;;;;;;6217089;23;20389;-78
2022/11/16 03:07:49;;;;;;;;;;;;;;;;;;6242764;23;20026;-78
2022/11/16 03:11:58;;;;;;;13.10;7.47;;;;;;;;;;6242812;23;19950;-79
2022/11/16 03:13:03;;;;;;;12.10;7.30;;;;;;;;;;6242304;23;20456;-81
2022/11/16 03:15:30;;;;;;;10.93;7.07;;;;;;;;;;6243902;22;20011;-78
2022/11/16 03:17:55;;;;;;;10.52;7.60;;;;;;;;;;6242768;23;20444;-79
2022/11/16 03:20:25;;;;;;;14.18;7.63;;;;;;;;;;6217590;23;20012;-80
2022/11/16 03:22:52;;;;;;;12.70;7.35;;;;;;;;;;6242255;23;20008;-79
2022/11/16 03:25:18;;;;;;;10.60;6.45;;;;;;;;;;6242417;23;20008;-81
2022/11/16 03:27:51;;;;;;;10.43;6.95;;;;;;;;;;6242527;23;20040;-79
2022/11/16 03:30:17;;;;;;;15.20;7.63;;;;;;;;;;6244222;23;20007;-81
2022/11/16 03:33:04;;;;;;;9.90;7.03;;;;;;;;;;6268270;22;20673;-81
2022/11/16 03:35:31;;;;;;;12.40;7.32;;;;;;;;;;6242142;22;20012;-80
2022/11/16 03:37:57;;;;;;;12.05;6.78;;;;;;;;;;6242831;23;20331;-81
2022/11/16 03:40:24;;;;;;;11.20;6.78;;;;;;;;;;6268049;22;20094;-81
2022/11/16 03:42:50;;;;;;;10.80;6.78;;;;;;;;;;6267791;22;20007;-80
2022/11/16 03:45:16;;;;;;;12.85;7.30;;;;;;;;;;6268396;22;20016;-81
2022/11/16 03:47:41;;;;;;;11.60;7.00;;;;;;;;;;6267933;22;20384;-80
2022/11/16 03:50:07;;;;;;;10.52;7.03;;;;;;;;;;6267890;22;20035;-81
2022/11/16 03:52:33;;;;;;;11.77;5.95;;;;;;;;;;6217237;23;20417;-80
2022/11/16 03:54:59;;;;;;;12.00;7.00;;;;;;;;;;6242491;23;20012;-81
2022/11/16 03:57:25;;;;;;;;;;;;;;;;;;6243071;23;20022;-80
2022/11/16 03:59:53;;;;;;;10.18;5.97;;;;;;;;;;6242065;23;19935;-80
2022/11/16 04:02:19;;;;;;;10.68;6.45;;;;;;;;;;6267873;22;20050;-80
2022/11/16 04:24:14;;;;;;;11.23;6.82;;;;;;;;;;6267516;22;20034;-80
2022/11/16 04:29:25;;;;;;;8.70;5.88;;;;;;;;;;6242001;23;20008;-80
2022/11/16 04:40:05;;;;;;;11.63;6.65;;;;;;;;;;6241504;23;20039;-79
2022/11/16 04:42:30;;;;;;;11.27;6.63;;;;;;;;;;6216404;23;20090;-79
2022/11/16 04:47:48;;;;;;;10.35;6.88;;;;;;;;;;6241800;23;20023;-81
2022/11/16 04:50:14;;;;;;;10.57;6.28;;;;;;;;;;6241035;23;20328;-79
2022/11/16 04:52:41;;;;;;;11.52;6.93;;;;;;;;;;6241374;23;20020;-81
2022/11/16 04:55:09;;;;;;;12.65;6.50;;;;;;;;;;6241651;23;20012;-80
2022/11/16 04:57:36;;;;;;;11.30;6.28;;;;;;;;;;6242063;23;20094;-81
2022/11/16 05:00:03;;;;;;;12.38;6.80;;;;;;;;;;6216464;23;20020;-80
2022/11/16 05:02:29;;;;;;;11.07;6.82;;;;;;;;;;6244367;23;20008;-79
2022/11/16 05:04:56;;;;;;;12.15;6.35;;;;;;;;;;6269038;22;20024;-80
2022/11/16 05:07:23;;;;;;;12.68;7.30;;;;;;;;;;6244158;23;19996;-80
2022/11/16 05:09:51;;;;;;;11.75;6.70;;;;;;;;;;6243655;23;20027;-80
2022/11/16 05:12:18;;;;;;;10.13;6.45;;;;;;;;;;6243628;23;20000;-79
2022/11/16 05:14:45;;;;;;;10.02;6.43;;;;;;;;;;6244010;23;20011;-80
2022/11/16 05:17:12;;;;;;;10.38;6.15;;;;;;;;;;6243781;23;20000;-80
2022/11/16 05:22:24;;;;;;;10.57;5.60;;;;;;;;;;6243551;23;20012;-81
2022/11/16 05:24:50;;;;;;;;;;;;;;;;;;6269385;22;20524;-80
2022/11/16 05:27:16;;;;;;;9.98;5.07;;;;;;;;;;6244508;23;19918;-80
2022/11/16 05:29:42;;;;;;;7.07;4.55;;;;;;;;;;6243629;23;20082;-79
2022/11/16 05:32:09;;;;;;;7.93;5.13;;;;;;;;;;6269375;22;20046;-81
2022/11/16 05:34:35;;;;;;;7.13;4.90;;;;;;;;;;6269389;22;20364;-79
2022/11/16 05:37:00;;;;;;;7.97;4.40;;;;;;;;;;6217291;23;20022;-80
2022/11/16 05:39:27;;;;;;;9.85;5.43;;;;;;;;;;6267751;22;20032;-80
2022/11/16 05:41:53;;;;;;;;;;;;;;;;;;6243102;23;20016;-80
2022/11/16 05:44:19;;;;;;;7.28;4.18;;;;;;;;;;6243214;23;20359;-80
2022/11/16 05:46:44;;;;;;;7.80;4.07;;;;;;;;;;6268179;22;20525;-80
2022/11/16 05:49:11;;;;;;;10.00;4.10;;;;;;;;;;6242739;22;20484;-80
2022/11/16 05:51:37;;;;;;;9.05;4.72;;;;;;;;;;6268221;22;20032;-80
2022/11/16 05:54:03;;;;;;;9.30;3.95;;;;;;;;;;6243013;22;19996;-80
2022/11/16 05:56:28;;;;;;;7.43;3.70;;;;;;;;;;6267805;22;20091;-80
2022/11/16 05:58:54;;;;;;;7.57;3.90;;;;;;;;;;6247631;22;20407;-80
2022/11/16 06:01:20;;;;;;;6.15;3.97;;;;;;;;;;6272458;22;20026;-81
2022/11/16 06:03:47;;;;;;;7.93;4.18;;;;;;;;;;6247888;22;20035;-80
2022/11/16 06:06:13;;;;;;;;;;;;;;;;;;6273817;22;20026;-80
2022/11/16 06:08:39;;;;;;;7.55;4.05;;;;;;;;;;6247808;22;19903;-80
2022/11/16 06:11:08;;;;;;;8.95;4.28;;;;;;;;;;6272651;22;20034;-80
2022/11/16 06:13:35;;;;;;;12.57;5.07;;;;;;;;;;6247225;22;20454;-80
2022/11/16 06:16:01;;;;;;;8.25;4.30;;;;;;;;;;6273106;22;20011;-81
2022/11/16 06:18:28;;;;;;;7.40;3.97;;;;;;;;;;6247911;22;20007;-79
2022/11/16 06:20:53;;;;;;;8.15;4.05;;;;;;;;;;6273183;22;20012;-80
2022/11/16 06:23:19;;;;;;;;;;;;;;;;;;6273360;22;20004;-79
2022/11/16 06:25:45;;;;;;;7.13;4.15;;;;;;;;;;6274893;22;20326;-79
2022/11/16 06:28:10;;;;;;;10.20;4.40;;;;;;;;;;6247272;22;20002;-81
2022/11/16 06:30:40;;;;;;;7.72;4.30;;;;;;;;;;6247408;22;20012;-79
2022/11/16 06:33:06;;;;;;;8.10;4.88;;;;;;;;;;6272988;22;20007;-79
2022/11/16 06:35:32;;;;;;;9.40;4.30;;;;;;;;;;6247094;22;20016;-80
2022/11/16 06:37:57;;;;;;;6.53;4.25;;;;;;;;;;6272931;22;20004;-80
2022/11/16 06:40:23;;;;;;;8.27;3.92;;;;;;;;;;6273011;22;20120;-80
2022/11/16 06:42:49;;;;;;;5.50;3.75;;;;;;;;;;6222209;22;19999;-80
2022/11/16 06:45:15;;;;;;;8.23;4.03;;;;;;;;;;6272611;22;20016;-81
2022/11/16 06:47:47;;;;;;;8.95;3.90;;;;;;;;;;6247101;22;20054;-80
2022/11/16 06:50:13;;;;;;;7.55;3.97;;;;;;;;;;6247464;22;20008;-81
2022/11/16 06:52:38;;;;;;;7.30;3.97;;;;;;;;;;6274625;22;20071;-79
2022/11/16 06:55:04;;;;;;;6.40;3.85;;;;;;;;;;6247532;22;20391;-80
2022/11/16 06:57:34;;;;;;;8.18;3.78;;;;;;;;;;6272379;22;20069;-79
2022/11/16 07:00:01;;;;;;;8.73;3.88;;;;;;;;;;6247183;22;20456;-82
2022/11/16 07:02:27;;;;;;;7.03;4.10;;;;;;;;;;6273935;22;20043;-81
2022/11/16 07:04:52;;;;;;;5.25;3.45;;;;;;;;;;6247108;22;20022;-81
2022/11/16 07:07:18;;;;;;;6.88;3.72;;;;;;;;;;6247201;22;20058;-80
2022/11/16 07:09:44;;;;;;;5.93;3.85;;;;;;;;;;6247135;22;20054;-80
2022/11/16 07:12:10;;;;;;;8.45;4.82;;;;;;;;;;6247640;22;20000;-81
2022/11/16 07:14:38;;;;;;;6.47;3.97;;;;;;;;;;6274112;22;20016;-81
2022/11/16 07:17:07;;;;;;;7.03;3.80;;;;;;;;;;6272816;22;20015;-81
2022/11/16 07:19:32;;;;;;;5.53;3.78;;;;;;;;;;6272856;22;20356;-81
2022/11/16 07:21:59;;;;;;;8.80;4.45;;;;;;;;;;6247209;22;20437;-80
2022/11/16 07:24:25;;;;;;;9.98;5.18;;;;;;;;;;6246790;22;20092;-80
2022/11/16 07:26:54;;;;;;;7.07;4.88;;;;;;;;;;6275260;22;19997;-80
2022/11/16 07:29:24;;;;;;;6.90;5.03;;;;;;;;;;6246584;22;20038;-81
2022/11/16 07:32:08;;;;;;;8.32;5.15;;;;;;;;;;6247422;22;20316;-80
2022/11/16 07:34:53;;;;;;;10.45;5.43;;;;;;;;;;6272462;22;20027;-81
2022/11/16 07:37:20;;;;;;;8.18;5.25;;;;;;;;;;6246722;22;20460;-81
2022/11/16 07:39:46;;;;;;;8.75;6.10;;;;;;;;;;6272218;22;20440;-80
2022/11/16 07:42:12;;;;;;;8.30;5.18;;;;;;;;;;6246859;22;20022;-80
2022/11/16 07:45:11;;;;;;;;;;;;;;;;;;6204392;22;20325;-80
2022/11/16 07:47:41;;;;;;;7.03;4.57;;;;;;;;;;6246601;22;19961;-81
2022/11/16 07:50:13;;;;;;;7.95;5.47;;;;;;;;;;6272017;22;20351;-81
2022/11/16 07:53:03;;;;;;;10.40;5.00;;;;;;;;;;6272252;22;20087;-81
2022/11/16 07:55:30;;;;;;;9.13;4.80;;;;;;;;;;6273723;22;20041;-80
2022/11/16 07:57:59;;;;;;;9.02;5.60;;;;;;;;;;6246378;22;20132;-80
2022/11/16 08:00:25;;;;;;;9.68;5.53;;;;;;;;;;6272162;22;20024;-80
2022/11/16 08:03:00;;;;;;;10.30;7.00;;;;;;;;;;6223034;22;20053;-81
2022/11/16 08:05:25;;;;;;;10.13;5.55;;;;;;;;;;6272016;22;20521;-81
2022/11/16 08:07:52;;;;;;;10.32;6.28;;;;;;;;;;6246312;22;20095;-80
2022/11/16 08:10:22;;;;;;;9.73;5.45;;;;;;;;;;6246813;22;20010;-81
2022/11/16 08:12:47;;;;;;;8.65;5.38;;;;;;;;;;6246498;22;20000;-80
2022/11/16 08:15:13;;;;;;;10.38;5.60;;;;;;;;;;6272241;22;20448;-80
2022/11/16 08:17:39;;;;;;;10.00;5.68;;;;;;;;;;6246253;22;20053;-82
2022/11/16 08:20:07;;;;;;;8.38;6.25;;;;;;;;;;6246457;22;20012;-81
2022/11/16 08:22:33;;;;;;;14.88;7.03;;;;;;;;;;6246449;22;20007;-80
2022/11/16 08:24:59;;;;;;;11.20;6.90;;;;;;;;;;6246533;22;20454;-82
2022/11/16 08:27:25;;;;;;;9.75;6.10;;;;;;;;;;6272231;22;20057;-80
2022/11/16 08:29:54;;;;;;;14.20;6.20;;;;;;;;;;6246052;22;20095;-80
2022/11/16 08:32:20;;;;;;;11.70;6.18;;;;;;;;;;6246732;22;20095;-80
2022/11/16 08:34:46;;;;;;;11.52;6.88;;;;;;;;;;6246357;22;20015;-80
2022/11/16 08:37:12;;;;;;;12.07;6.75;;;;;;;;;;6220802;22;20000;-80
2022/11/16 08:39:41;;;;;;;10.73;7.18;;;;;;;;;;6272126;22;20094;-81
2022/11/16 08:42:07;;;;;;;8.98;6.20;;;;;;;;;;6272229;22;20015;-80
2022/11/16 08:44:34;;;;;;;10.48;6.47;;;;;;;;;;6220994;22;20368;-81
2022/11/16 08:47:03;;;;;;;10.48;6.53;;;;;;;;;;6246523;22;20431;-81
2022/11/16 08:49:39;;;;;;;9.70;5.85;;;;;;;;;;6246303;22;20439;-80
2022/11/16 08:52:05;;;;;;;8.65;5.85;;;;;;;;;;6246172;22;20039;-80
2022/11/16 08:54:32;;;;;;;9.45;6.60;;;;;;;;;;6245931;22;20045;-81
2022/11/16 08:56:58;;;;;;;13.23;8.38;;;;;;;;;;6246386;22;20003;-80
2022/11/16 08:59:23;;;;;;;10.93;6.30;;;;;;;;;;6220865;22;20042;-81
2022/11/16 09:01:53;;;;;;;10.55;6.57;;;;;;;;;;6246143;22;20012;-80
2022/11/16 09:04:18;;;;;;;8.40;5.97;;;;;;;;;;6272939;22;20324;-81
2022/11/16 09:06:44;;;;;;;9.05;5.85;;;;;;;;;;6271896;22;20019;-81
2022/11/16 09:09:09;;;;;;;11.27;5.20;;;;;;;;;;6271958;22;20379;-81
2022/11/16 09:11:35;;;;;;;13.60;5.22;;;;;;;;;;6245940;22;20012;-80
2022/11/16 09:14:00;;;;;;;8.30;5.22;;;;;;;;;;6221073;22;19995;-81
2022/11/16 09:16:26;;;;;;;8.60;5.47;;;;;;;;;;6272129;22;20035;-82
2022/11/16 09:18:52;;;;;;;12.07;5.40;;;;;;;;;;6273673;22;20004;-80
2022/11/16 09:21:24;;;;;;;9.68;5.10;;;;;;;;;;6271994;22;20016;-80
2022/11/16 09:23:50;;;;;;;9.35;5.65;;;;;;;;;;6220939;22;20012;-81
2022/11/16 09:26:17;;;;;;;9.68;6.10;;;;;;;;;;6271513;22;20014;-79
2022/11/16 09:28:43;;;;;;;8.65;5.22;;;;;;;;;;6245788;22;20007;-80
2022/11/16 09:31:09;;;;;;;11.45;6.10;;;;;;;;;;6272120;22;20000;-79
2022/11/16 09:33:34;;;;;;;10.65;6.10;;;;;;;;;;6273414;22;20015;-80
2022/11/16 09:36:05;;;;;;;12.32;6.20;;;;;;;;;;6246021;22;20463;-79
2022/11/16 09:38:33;;;;;;;10.95;7.07;;;;;;;;;;6271717;22;20065;-81
2022/11/16 09:40:59;;;;;;;13.05;8.73;;;;;;;;;;6271673;22;20029;-81
2022/11/16 09:43:24;;;;;;;12.70;8.90;;;;;;;;;;6220622;22;20016;-83
2022/11/16 09:46:08;;;;;;;16.27;8.55;;;;;;;;;;6246479;22;20008;-80
2022/11/16 09:48:34;;;;;;;12.68;8.27;;;;;;;;;;6274631;22;20447;-81
2022/11/16 09:51:01;;;;;;;12.50;8.55;;;;;;;;;;6274006;22;19996;-81
2022/11/16 09:53:30;;;;;;;11.90;7.82;;;;;;;;;;6273541;22;20034;-82
2022/11/16 09:55:57;;;;;;;12.77;6.97;;;;;;;;;;6275449;22;20010;-80
2022/11/16 09:58:31;;;;;;;13.35;7.20;;;;;;;;;;6269574;22;20015;-80
2022/11/16 10:01:02;;;;;;;11.52;6.53;;;;;;;;;;6268402;22;20024;-81
2022/11/16 10:03:27;;;;;;;12.00;6.20;;;;;;;;;;6242650;23;20447;-80
2022/11/16 10:05:53;;;;;;;14.35;6.97;;;;;;;;;;6268568;22;20012;-81
2022/11/16 10:08:25;;;;;;;15.20;6.47;;;;;;;;;;6243946;23;20058;-81
2022/11/16 10:11:09;;;;;;;12.82;5.63;;;;;;;;;;6268284;22;20062;-81
2022/11/16 10:13:41;;;;;;;13.98;6.60;;;;;;;;;;6244912;23;20347;-81
2022/11/16 10:16:16;;;;;;;13.52;6.15;;;;;;;;;;6242636;23;20526;-80
2022/11/16 10:19:08;;;;;;;11.77;6.18;;;;;;;;;;6244582;23;20020;-80
2022/11/16 10:21:33;;;;;;;17.27;6.15;;;;;;;;;;6239792;22;20534;-81
2022/11/16 10:24:07;;;;;;;11.25;6.25;;;;;;;;;;6242597;23;20017;-80
2022/11/16 10:26:45;;;;;;;14.73;6.63;;;;;;;;;;6268238;22;20043;-80
2022/11/16 10:29:10;;;;;;;12.63;6.45;;;;;;;;;;6242679;23;20448;-80
2022/11/16 10:31:36;;;;;;;14.73;6.50;;;;;;;;;;6244713;23;20004;-80
2022/11/16 10:34:01;;;;;;;11.85;6.38;;;;;;;;;;6244027;23;20008;-81
2022/11/16 10:36:26;;;;;;;11.98;6.10;;;;;;;;;;6268383;22;20380;-81
2022/11/16 10:38:55;;;;;;;13.32;6.40;;;;;;;;;;6268260;22;20066;-81
2022/11/16 10:41:21;;;;;;;17.13;7.53;;;;;;;;;;6268319;22;20000;-80
2022/11/16 10:43:46;;;;;;;20.67;8.82;;;;;;;;;;6242205;23;20074;-81
2022/11/16 10:46:12;;;;;;;19.45;8.18;;;;;;;;;;6267731;22;20486;-80
2022/11/16 10:48:40;;;;;;;13.85;7.90;;;;;;;;;;6242063;23;20027;-81
2022/11/16 10:51:06;;;;;;;18.20;7.72;;;;;;;;;;6242710;23;20000;-81
2022/11/16 10:53:32;;;;;;;13.30;7.80;;;;;;;;;;6216972;23;20014;-81
2022/11/16 10:55:57;;;;;;;;;;;;;;;;;;6268819;22;20027;-81
2022/11/16 10:58:23;;;;;;;15.43;7.38;;;;;;;;;;6243616;22;19907;-81
2022/11/16 11:00:50;;;;;;;13.65;7.57;;;;;;;;;;6268288;22;20020;-81
2022/11/16 11:03:28;;;;;;;17.40;7.43;;;;;;;;;;6242063;23;20023;-81
2022/11/16 11:05:53;;;;;;;17.75;7.20;;;;;;;;;;6267697;22;20108;-80
2022/11/16 11:08:26;;;;;;;13.50;6.65;;;;;;;;;;6242123;23;20006;-82
2022/11/16 11:11:00;;;;;;;13.43;6.85;;;;;;;;;;6242124;23;20518;-81
2022/11/16 11:13:26;;;;;;;16.70;6.90;;;;;;;;;;6243117;23;20018;-81
2022/11/16 11:15:52;;;;;;;13.95;6.93;;;;;;;;;;6267872;22;20000;-80
2022/11/16 11:18:28;;;;;;;13.43;7.03;;;;;;;;;;6267375;22;20062;-81
2022/11/16 11:20:54;;;;;;;;;;;;;;;;;;6268190;22;20023;-80
2022/11/16 11:23:20;;;;;;;16.13;7.40;;;;;;;;;;6242104;23;19990;-81
2022/11/16 11:25:50;;;;;;;13.25;8.93;;;;;;;;;;6241965;23;20019;-80
2022/11/16 11:28:15;;;;;;;17.63;7.55;;;;;;;;;;6268143;22;20023;-80
2022/11/16 11:30:50;;;;;;;19.38;8.35;;;;;;;;;;6243573;23;20008;-80
2022/11/16 11:33:16;;;;;;;13.38;8.20;;;;;;;;;;6243954;22;20016;-81
2022/11/16 11:35:42;;;;;;;16.92;8.20;;;;;;;;;;6267517;22;20443;-81
2022/11/16 11:38:11;;;;;;;16.48;7.95;;;;;;;;;;6267665;22;20011;-81
2022/11/16 11:40:37;;;;;;;13.55;7.22;;;;;;;;;;6267733;22;20016;-80
2022/11/16 11:43:03;;;;;;;14.68;7.95;;;;;;;;;;6241617;22;20007;-80
2022/11/16 11:45:29;;;;;;;;;;;;;;;;;;6243919;22;20016;-81
2022/11/16 11:47:58;;;;;;;17.55;7.90;;;;;;;;;;6243316;22;20251;-81
2022/11/16 11:50:39;;;;;;;14.90;7.97;;;;;;;;;;6241803;23;20083;-80
2022/11/16 11:53:05;;;;;;;14.63;8.15;;;;;;;;;;6243200;22;20034;-80
2022/11/16 11:55:30;;;;;;;17.52;8.15;;;;;;;;;;6243177;23;20078;-81
2022/11/16 11:57:56;;;;;;;16.98;8.57;;;;;;;;;;6243655;23;20024;-81
2022/11/16 12:00:22;;;;;;;13.65;8.63;;;;;;;;;;6267047;22;20020;-81
2022/11/16 12:03:00;;;;;;;15.80;9.25;;;;;;;;;;6241262;23;20333;-81
2022/11/16 12:05:25;;;;;;;15.55;9.48;;;;;;;;;;6241728;23;20351;-81
2022/11/16 12:07:51;;;;;;;17.63;9.13;;;;;;;;;;6243054;22;20020;-80
2022/11/16 12:10:25;;;;;;;15.18;9.70;;;;;;;;;;6243136;23;20012;-81
2022/11/16 12:13:11;;;;;;;19.25;8.93;;;;;;;;;;6243370;23;20008;-80
2022/11/16 12:15:47;;;;;;;16.73;9.05;;;;;;;;;;6241360;23;20034;-80
2022/11/16 12:18:13;;;;;;;13.93;8.07;;;;;;;;;;6267273;22;20020;-82
2022/11/16 12:20:45;;;;;;;14.98;8.75;;;;;;;;;;6241832;23;20032;-80
2022/11/16 12:23:10;;;;;;;16.35;8.73;;;;;;;;;;6267264;22;20012;-79
2022/11/16 12:25:36;;;;;;;16.95;9.00;;;;;;;;;;6241408;23;20277;-82
2022/11/16 12:28:10;;;;;;;14.82;8.95;;;;;;;;;;6241151;23;20015;-81
2022/11/16 12:30:38;;;;;;;14.15;8.95;;;;;;;;;;6243058;23;20436;-81
2022/11/16 12:33:04;;;;;;;17.15;9.80;;;;;;;;;;6243056;22;20002;-81
2022/11/16 12:35:32;;;;;;;16.35;9.82;;;;;;;;;;6241132;23;20039;-82
2022/11/16 12:38:08;;;;;;;14.85;9.35;;;;;;;;;;6267000;22;20341;-81
2022/11/16 12:40:33;;;;;;;16.17;9.77;;;;;;;;;;6242725;23;20012;-80
2022/11/16 12:43:11;;;;;;;18.88;10.20;;;;;;;;;;6243141;22;20011;-80
2022/11/16 12:45:52;;;;;;;17.27;9.75;;;;;;;;;;6241451;23;20020;-80
2022/11/16 12:48:26;;;;;;;20.92;11.32;;;;;;;;;;6241233;23;20008;-80
2022/11/16 12:51:17;;;;;;;17.63;10.18;;;;;;;;;;6241216;23;20024;-80
2022/11/16 12:53:42;;;;;;;17.80;10.55;;;;;;;;;;6267109;22;20027;-81
2022/11/16 12:56:27;;;;;;;15.55;9.80;;;;;;;;;;6215975;23;20007;-81
2022/11/16 12:59:04;;;;;;;19.27;11.07;;;;;;;;;;6243251;22;20016;-79
2022/11/16 13:01:30;;;;;;;18.42;11.70;;;;;;;;;;6273861;22;20020;-80
2022/11/16 13:04:12;;;;;;;18.45;11.13;;;;;;;;;;6245504;22;20008;-81
2022/11/16 13:06:38;;;;;;;15.88;11.13;;;;;;;;;;6242511;23;20070;-81
2022/11/16 13:09:12;;;;;;;17.40;10.13;;;;;;;;;;6266181;22;20004;-80
2022/11/16 13:11:39;;;;;;;22.25;10.88;;;;;;;;;;6266671;22;20430;-81
2022/11/16 13:14:05;;;;;;;20.73;9.90;;;;;;;;;;6242591;22;20093;-79
2022/11/16 13:16:31;;;;;;;20.30;9.88;;;;;;;;;;6266958;22;20738;-80
2022/11/16 13:18:56;;;;;;;16.35;9.65;;;;;;;;;;6242257;23;20004;-81
2022/11/16 13:21:28;;;;;;;13.13;9.13;;;;;;;;;;6267183;22;20011;-81
2022/11/16 13:24:12;;;;;;;15.80;7.82;;;;;;;;;;6244825;22;20440;-81
2022/11/16 13:26:43;;;;;;;15.25;8.43;;;;;;;;;;6244578;23;20038;-80
2022/11/16 13:29:29;;;;;;;12.52;7.93;;;;;;;;;;6268523;22;20091;-80
2022/11/16 13:32:05;;;;;;;11.90;7.20;;;;;;;;;;6182594;22;20008;-80
2022/11/16 13:34:31;;;;;;;14.05;7.20;;;;;;;;;;6268520;22;20008;-81
2022/11/16 13:36:56;;;;;;;12.30;8.10;;;;;;;;;;6268408;22;20011;-81
2022/11/16 13:39:40;;;;;;;11.93;7.53;;;;;;;;;;6244909;22;20012;-80
2022/11/16 13:42:06;;;;;;;15.25;7.03;;;;;;;;;;6244421;23;20058;-80
2022/11/16 13:44:31;;;;;;;13.93;8.10;;;;;;;;;;6242923;23;20535;-80
2022/11/16 13:46:58;;;;;;;16.65;8.40;;;;;;;;;;6242646;23;20012;-80
2022/11/16 13:49:25;;;;;;;12.50;7.43;;;;;;;;;;6244371;23;20000;-82
2022/11/16 13:51:51;;;;;;;12.85;7.65;;;;;;;;;;6244327;22;20444;-79
2022/11/16 13:54:25;;;;;;;12.55;7.45;;;;;;;;;;6242878;23;20006;-79
2022/11/16 13:56:50;;;;;;;11.68;6.85;;;;;;;;;;6242407;23;20016;-80
2022/11/16 13:59:16;;;;;;;10.60;6.90;;;;;;;;;;6244146;22;20464;-80
2022/11/16 14:01:55;;;;;;;13.38;7.22;;;;;;;;;;6268549;22;20016;-80
2022/11/16 14:04:39;;;;;;;15.13;7.28;;;;;;;;;;6244586;22;20016;-80
2022/11/16 14:07:26;;;;;;;12.32;7.53;;;;;;;;;;6243884;22;20032;-80
2022/11/16 14:09:51;;;;;;;12.93;7.05;;;;;;;;;;6242131;23;20016;-81
2022/11/16 14:12:35;;;;;;;14.23;7.57;;;;;;;;;;6244005;22;20038;-81
2022/11/16 14:15:20;;;;;;;12.20;7.70;;;;;;;;;;6244474;23;20004;-82
2022/11/16 14:17:52;;;;;;;15.35;8.38;;;;;;;;;;6268008;22;20107;-80
2022/11/16 14:20:36;;;;;;;13.13;8.45;;;;;;;;;;6244184;23;20011;-82
2022/11/16 14:23:21;;;;;;;18.98;8.63;;;;;;;;;;6244251;23;20075;-81
2022/11/16 14:26:02;;;;;;;15.70;8.25;;;;;;;;;;6242718;23;20020;-80
2022/11/16 14:28:57;;;;;;;17.60;8.50;;;;;;;;;;6243406;22;20039;-80
2022/11/16 14:31:29;;;;;;;15.65;8.23;;;;;;;;;;6162499;22;20357;-79
2022/11/16 14:33:55;;;;;;;13.90;8.60;;;;;;;;;;6242161;23;20340;-80
2022/11/16 14:36:20;;;;;;;;;;;;;;;;;;6268524;22;20028;-81
2022/11/16 14:38:46;;;;;;;11.25;7.10;;;;;;;;;;6244439;22;20428;-82
2022/11/16 14:41:12;;;;;;;12.48;7.43;;;;;;;;;;6244319;22;20004;-80
2022/11/16 14:43:38;;;;;;;14.07;7.45;;;;;;;;;;6242440;23;20149;-81
2022/11/16 14:46:05;;;;;;;12.93;7.57;;;;;;;;;;6243714;23;20039;-81
2022/11/16 14:48:30;;;;;;;11.13;7.55;;;;;;;;;;6242359;23;20510;-80
2022/11/16 14:51:14;;;;;;;18.05;8.77;;;;;;;;;;6268046;22;20016;-82
2022/11/16 14:53:44;;;;;;;15.50;7.72;;;;;;;;;;6244098;23;20074;-81
2022/11/16 14:56:11;;;;;;;13.43;8.68;;;;;;;;;;6267492;22;20012;-81
2022/11/16 14:58:37;;;;;;;12.65;6.35;;;;;;;;;;6267842;22;20022;-81
2022/11/16 15:01:07;;;;;;;16.02;6.80;;;;;;;;;;6267644;22;20044;-82
2022/11/16 15:03:49;;;;;;;11.90;6.50;;;;;;;;;;6243636;22;20020;-81
2022/11/16 15:06:15;;;;;;;15.35;6.65;;;;;;;;;;6241731;23;20065;-81
2022/11/16 15:08:44;;;;;;;14.55;6.60;;;;;;;;;;6243762;22;20332;-79
2022/11/16 15:11:19;;;;;;;15.88;6.53;;;;;;;;;;6267339;22;20069;-80
2022/11/16 15:13:45;;;;;;;15.00;6.50;;;;;;;;;;6267773;22;20026;-81
2022/11/16 15:16:10;;;;;;;;;;;;;;;;;;6267806;22;20004;-82
2022/11/16 15:18:36;;;;;;;11.07;6.13;;;;;;;;;;6243713;23;19935;-82
2022/11/16 15:21:01;;;;;;;12.48;6.60;;;;;;;;;;6267841;22;20035;-82
2022/11/16 15:23:27;;;;;;;12.07;6.32;;;;;;;;;;6267646;22;20018;-81
2022/11/16 15:25:53;;;;;;;11.05;6.00;;;;;;;;;;6243111;23;20042;-81
2022/11/16 15:28:20;;;;;;;12.40;6.95;;;;;;;;;;6243547;23;20019;-81